• Join FlightAware (Why Join?)
  • Login
  • US Flag 
02:05AM EDT


 

Airport Tracker/Info


-or-


 

Live Flight TrackerFlight Track Log ✈ SLI679 ✈ 23-Apr-2013 ✈ MGGT / GUA - MMMX / MEX

Flight Track Log - Related Links

Times and Time Zones

All times are in EDT time to prevent confusion due to time zone crossing. See the SLI679 flight status page for this flight to view local times or setup timezone preferences in your user account.

Time Position Orientation Groundspeed Altitude Reporting Facility
EDT Latitude Longitude Course Direction KTS MPH feet Rate Location/Type
09:30PM 14.7761 -90.8482 302° West  Level Estimated
09:31PM 14.8243 -90.9285 302° West  Level Estimated
09:32PM 14.8724 -91.0088 302° West  Level Estimated
09:33PM 14.9205 -91.0891 302° West  Level Estimated
09:34PM 14.9686 -91.1695 302° West  Level Estimated
09:35PM 15.0166 -91.2499 302° West  Level Estimated
09:36PM 15.0646 -91.3304 302° West  Level Estimated
09:37PM 15.1126 -91.4109 302° West  Level Estimated
09:38PM 15.1606 -91.4914 302° West  Level Estimated
09:39PM 15.2085 -91.5720 302° West  Level Estimated
09:40PM 15.2564 -91.6526 302° West  Level Estimated
09:41PM 15.3042 -91.7332 302° West  Level Estimated
09:42PM 15.3521 -91.8139 302° West  Level Estimated
09:43PM 15.3999 -91.8946 302° West  Level Estimated
09:44PM 15.4477 -91.9753 302° West  Level Estimated
09:45PM 15.4954 -92.0561 302° West  Level Estimated
09:46PM 15.5431 -92.1369 302° West  Level Estimated
09:47PM 15.5908 -92.2178 301° West  Level Estimated
09:48PM 15.6385 -92.2987 301° West  Level Estimated
09:49PM 15.6861 -92.3796 301° West  Level Estimated
09:50PM 15.7337 -92.4606 301° West  Level Estimated
09:51PM 15.7813 -92.5416 301° West  Level Estimated
09:52PM 15.8288 -92.6227 301° West  Level Estimated
09:53PM 15.8764 -92.7038 301° West  Level Estimated
09:54PM 15.9238 -92.7849 301° West  Level Estimated
09:55PM 15.9713 -92.8660 301° West  Level Estimated
09:56PM 16.0187 -92.9472 301° West  Level Estimated
09:57PM 16.0661 -93.0285 301° West  Level Estimated
09:58PM 16.1134 -93.1098 301° West  Level Estimated
09:59PM 16.1608 -93.1911 301° West  Level Estimated
10:00PM 16.2081 -93.2724 301° West  Level Estimated
10:01PM 16.2554 -93.3538 301° West  Level Estimated
10:02PM 16.3026 -93.4353 301° West  Level Estimated
10:03PM 16.3498 -93.5167 301° West  Level Estimated
10:04PM 16.3970 -93.5983 301° West  Level Estimated
10:05PM 16.4441 -93.6798 301° West  Level Estimated
10:06PM 16.4912 -93.7614 301° West  Level Estimated
10:07PM 16.5383 -93.8430 301° West  Level Estimated
10:08PM 16.5854 -93.9247 301° West  Level Estimated
10:09PM 16.6324 -94.0064 301° West  Level Estimated
10:10PM 16.6793 -94.0882 301° West  Level Estimated
10:11PM 16.7263 -94.1699 301° West  Level Estimated
10:12PM 16.7732 -94.2518 301° West  Level Estimated
10:13PM 16.8201 -94.3336 301° West  Level Estimated
10:14PM 16.8670 -94.4156 301° West  Level Estimated
10:15PM 16.9138 -94.4975 301° West  Level Estimated
10:16PM 16.9606 -94.5795 301° West  Level Estimated
10:17PM 17.0073 -94.6615 301° West  Level Estimated
10:18PM 17.0541 -94.7436 301° West  Level Estimated
10:19PM 17.1007 -94.8257 301° West  Level Estimated
10:20PM 17.1474 -94.9079 301° West  Level Estimated
10:21PM 17.1940 -94.9901 301° West  Level Estimated
10:22PM 17.2406 -95.0723 301° West  Level Estimated
10:23PM 17.2872 -95.1546 301° West  Level Estimated
10:24PM 17.3337 -95.2369 301° West  Level Estimated
10:25PM 17.3802 -95.3193 301° West  Level Estimated
10:26PM 17.4266 -95.4017 301° West  Level Estimated
10:27PM 17.4731 -95.4842 301° West  Level Estimated
10:28PM 17.5194 -95.5667 301° West  Level Estimated
10:29PM 17.5658 -95.6492 301° West  Level Estimated
10:30PM 17.6121 -95.7318 300° West  Level Estimated
10:31PM 17.6584 -95.8144 300° West  Level Estimated
10:32PM 17.7047 -95.8970 300° West  Level Estimated
10:33PM 17.7509 -95.9797 300° West  Level Estimated
10:34PM 17.7971 -96.0625 300° West  Level Estimated
10:35PM 17.8432 -96.1453 300° West  Level Estimated
10:36PM 17.8893 -96.2281 300° West  Level Estimated
10:37PM 17.9354 -96.3110 300° West  Level Estimated
10:38PM 17.9814 -96.3939 300° West  Level Estimated
10:39PM 18.0275 -96.4769 300° West  Level Estimated
10:40PM 18.0734 -96.5599 300° West  Level Estimated
10:41PM 18.1194 -96.6429 300° West  Level Estimated
10:42PM 18.1653 -96.7260 300° West  Level Estimated
10:43PM 18.2111 -96.8092 300° West  Level Estimated
10:44PM 18.2570 -96.8923 300° West  Level Estimated
10:45PM 18.3027 -96.9756 300° West  Level Estimated
10:46PM 18.3485 -97.0588 300° West  Level Estimated
10:47PM 18.3942 -97.1421 300° West  Level Estimated
10:48PM 18.4399 -97.2255 300° West  Level Estimated
10:49PM 18.4856 -97.3089 300° West  Level Estimated
10:50PM 18.5312 -97.3923 300° West  Level Estimated
10:51PM 18.5768 -97.4758 300° West  Level Estimated
10:52PM 18.6223 -97.5594 300° West  Level Estimated
10:53PM 18.6678 -97.6429 300° West  Level Estimated
10:54PM 18.7133 -97.7266 300° West  Level Estimated
10:55PM 18.7587 -97.8102 300° West  Level Estimated
10:56PM 18.8041 -97.8939 300° West  Level Estimated
10:57PM 18.8494 -97.9777 300° West  Level Estimated
10:58PM 18.8948 -98.0615 300° West  Level Estimated
10:59PM 18.9400 -98.1453 300° West  Level Estimated
11:00PM 18.9853 -98.2292 300° West  Level Estimated
11:01PM 19.0305 -98.3132 300° West  Level Estimated
11:02PM 19.0756 -98.3972 300° West  Level Estimated
11:03PM 19.1208 -98.4812 300° West  Level Estimated
11:04PM 19.1658 -98.5653 300° West  Level Estimated
11:05PM 19.2109 -98.6494 300° West  Level Estimated
11:06PM 19.2559 -98.7336 300° West  Level Estimated
11:07PM 19.3009 -98.8178 300° West  Level Estimated
11:08PM 19.3458 -98.9021 299° West  Level Estimated
11:09PM 19.3907 -98.9864 299° West  Level Estimated
11:10PM 19.4356 -99.0707 299° West  Level Estimated
11:11PM 19.4363 -99.0721 300° West  Level Estimated
11:12PM 19.4363 -99.0721 43° Northeast  Level Estimated
11:13PM 19.4363 -99.0721 43° Northeast  Level Estimated
11:14PM 19.4363 -99.0721 43° Northeast  Level Estimated
11:15PM 19.4363 -99.0721 43° Northeast  Level Estimated
11:16PM 19.4363 -99.0721 43° Northeast  Level Estimated
11:17PM 19.4363 -99.0721 43° Northeast  Level Estimated
11:18PM 19.4363 -99.0721 43° Northeast  Level Estimated
11:19PM 19.4363 -99.0721 43° Northeast  Level Estimated
11:20PM 19.4363 -99.0721 43° Northeast  Level Estimated
11:21PM 19.4363 -99.0721 43° Northeast  Level Estimated
11:22PM 19.4363 -99.0721 43° Northeast  Level Estimated
11:23PM 19.4363 -99.0721 43° Northeast  Level Estimated
11:24PM 19.4363 -99.0721 43° Northeast  Level Estimated
11:25PM 19.4363 -99.0721 43° Northeast  Level Estimated
11:26PM 19.4363 -99.0721 43° Northeast  Level Estimated